sensor_id;sensor_type;location;lat;lon;timestamp;pressure;altitude;pressure_sealevel;temperature;humidity
48364;BME280;34170;54.364;18.582;2023-03-04T00:01:52;99502.41;;;4.81;100.00
48364;BME280;34170;54.364;18.582;2023-03-04T00:04:20;99498.63;;;4.62;100.00
48364;BME280;34170;54.364;18.582;2023-03-04T00:06:47;99501.25;;;4.73;100.00
48364;BME280;34170;54.364;18.582;2023-03-04T00:09:15;99498.03;;;4.91;99.51
48364;BME280;34170;54.364;18.582;2023-03-04T00:11:42;99495.66;;;4.76;100.00
48364;BME280;34170;54.364;18.582;2023-03-04T00:14:10;99481.78;;;4.94;100.00
48364;BME280;34170;54.364;18.582;2023-03-04T00:16:37;99483.59;;;4.72;100.00
48364;BME280;34170;54.364;18.582;2023-03-04T00:19:05;99493.97;;;4.75;100.00
48364;BME280;34170;54.364;18.582;2023-03-04T00:21:32;99484.72;;;4.58;100.00
48364;BME280;34170;54.364;18.582;2023-03-04T00:24:00;99490.50;;;4.96;100.00
48364;BME280;34170;54.364;18.582;2023-03-04T00:26:27;99475.53;;;4.51;100.00
48364;BME280;34170;54.364;18.582;2023-03-04T00:28:55;99485.19;;;4.64;100.00
48364;BME280;34170;54.364;18.582;2023-03-04T00:31:22;99493.06;;;4.65;100.00
48364;BME280;34170;54.364;18.582;2023-03-04T00:33:49;99487.91;;;4.85;100.00
48364;BME280;34170;54.364;18.582;2023-03-04T00:36:17;99466.53;;;4.64;100.00
48364;BME280;34170;54.364;18.582;2023-03-04T00:38:44;99477.72;;;4.78;100.00
48364;BME280;34170;54.364;18.582;2023-03-04T00:41:12;99471.63;;;4.88;100.00
48364;BME280;34170;54.364;18.582;2023-03-04T00:43:41;99460.97;;;4.88;100.00
48364;BME280;34170;54.364;18.582;2023-03-04T00:46:08;99469.91;;;4.66;100.00
48364;BME280;34170;54.364;18.582;2023-03-04T00:48:36;99447.94;;;4.85;100.00
48364;BME280;34170;54.364;18.582;2023-03-04T00:51:04;99444.09;;;4.77;100.00
48364;BME280;34170;54.364;18.582;2023-03-04T00:53:32;99442.75;;;4.72;100.00
48364;BME280;34170;54.364;18.582;2023-03-04T00:55:59;99442.28;;;4.67;100.00
48364;BME280;34170;54.364;18.582;2023-03-04T00:58:27;99443.53;;;4.30;100.00
48364;BME280;34170;54.364;18.582;2023-03-04T01:00:54;99432.31;;;4.27;100.00
48364;BME280;34170;54.364;18.582;2023-03-04T01:03:22;99436.25;;;4.44;100.00
48364;BME280;34170;54.364;18.582;2023-03-04T01:05:50;99415.50;;;4.15;100.00
48364;BME280;34170;54.364;18.582;2023-03-04T01:08:17;99425.16;;;4.27;100.00
48364;BME280;34170;54.364;18.582;2023-03-04T01:10:45;99417.16;;;4.27;100.00
48364;BME280;34170;54.364;18.582;2023-03-04T01:13:14;99419.16;;;4.14;100.00
48364;BME280;34170;54.364;18.582;2023-03-04T01:15:42;99417.44;;;4.24;100.00
48364;BME280;34170;54.364;18.582;2023-03-04T01:18:10;99411.66;;;4.19;100.00
48364;BME280;34170;54.364;18.582;2023-03-04T01:20:37;99422.66;;;4.14;100.00
48364;BME280;34170;54.364;18.582;2023-03-04T01:23:04;99415.09;;;4.31;100.00
48364;BME280;34170;54.364;18.582;2023-03-04T01:25:35;99410.22;;;4.47;100.00
48364;BME280;34170;54.364;18.582;2023-03-04T01:28:02;99409.56;;;4.23;100.00
48364;BME280;34170;54.364;18.582;2023-03-04T01:30:30;99408.28;;;4.17;100.00
48364;BME280;34170;54.364;18.582;2023-03-04T01:32:57;99410.19;;;4.15;100.00
48364;BME280;34170;54.364;18.582;2023-03-04T01:35:25;99396.44;;;3.98;100.00
48364;BME280;34170;54.364;18.582;2023-03-04T01:37:52;99408.03;;;4.09;100.00
48364;BME280;34170;54.364;18.582;2023-03-04T01:40:19;99404.88;;;4.15;100.00
48364;BME280;34170;54.364;18.582;2023-03-04T01:42:47;99420.59;;;4.18;100.00
48364;BME280;34170;54.364;18.582;2023-03-04T01:45:17;99410.16;;;4.26;100.00
48364;BME280;34170;54.364;18.582;2023-03-04T01:47:47;99414.78;;;4.24;100.00
48364;BME280;34170;54.364;18.582;2023-03-04T01:50:21;99410.00;;;4.39;100.00
48364;BME280;34170;54.364;18.582;2023-03-04T01:52:50;99386.22;;;4.26;100.00
48364;BME280;34170;54.364;18.582;2023-03-04T01:55:20;99398.22;;;4.42;100.00
48364;BME280;34170;54.364;18.582;2023-03-04T01:57:50;99399.47;;;4.37;100.00
48364;BME280;34170;54.364;18.582;2023-03-04T02:00:21;99394.25;;;4.47;100.00
48364;BME280;34170;54.364;18.582;2023-03-04T02:02:52;99396.81;;;4.37;100.00
48364;BME280;34170;54.364;18.582;2023-03-04T02:05:21;99394.66;;;4.31;100.00
48364;BME280;34170;54.364;18.582;2023-03-04T02:07:52;99395.16;;;4.25;100.00
48364;BME280;34170;54.364;18.582;2023-03-04T02:10:21;99398.22;;;4.20;100.00
48364;BME280;34170;54.364;18.582;2023-03-04T02:12:50;99385.78;;;4.10;100.00
48364;BME280;34170;54.364;18.582;2023-03-04T02:15:18;99394.75;;;4.09;100.00
48364;BME280;34170;54.364;18.582;2023-03-04T02:17:45;99393.63;;;4.11;100.00
48364;BME280;34170;54.364;18.582;2023-03-04T02:20:47;99388.09;;;4.35;100.00
48364;BME280;34170;54.364;18.582;2023-03-04T02:26:20;99390.69;;;4.26;100.00
48364;BME280;34170;54.364;18.582;2023-03-04T02:28:52;99385.09;;;4.29;100.00
48364;BME280;34170;54.364;18.582;2023-03-04T02:33:57;99378.41;;;4.02;100.00
48364;BME280;34170;54.364;18.582;2023-03-04T02:36:27;99395.97;;;4.05;100.00
48364;BME280;34170;54.364;18.582;2023-03-04T02:38:59;99381.69;;;4.06;100.00
48364;BME280;34170;54.364;18.582;2023-03-04T02:41:29;99383.91;;;3.89;100.00
48364;BME280;34170;54.364;18.582;2023-03-04T02:43:58;99373.63;;;3.96;100.00
48364;BME280;34170;54.364;18.582;2023-03-04T02:46:26;99378.53;;;4.00;100.00
48364;BME280;34170;54.364;18.582;2023-03-04T02:48:54;99366.03;;;3.80;100.00
48364;BME280;34170;54.364;18.582;2023-03-04T02:51:21;99363.72;;;3.87;100.00
48364;BME280;34170;54.364;18.582;2023-03-04T02:53:49;99359.53;;;3.73;100.00
48364;BME280;34170;54.364;18.582;2023-03-04T02:56:16;99374.53;;;3.74;100.00
48364;BME280;34170;54.364;18.582;2023-03-04T02:58:44;99369.44;;;3.71;100.00
48364;BME280;34170;54.364;18.582;2023-03-04T03:01:11;99370.19;;;3.61;100.00
48364;BME280;34170;54.364;18.582;2023-03-04T03:03:39;99383.69;;;3.70;100.00
48364;BME280;34170;54.364;18.582;2023-03-04T03:06:06;99378.81;;;3.86;100.00
48364;BME280;34170;54.364;18.582;2023-03-04T03:08:34;99385.59;;;3.79;100.00
48364;BME280;34170;54.364;18.582;2023-03-04T03:11:01;99384.91;;;3.66;100.00
48364;BME280;34170;54.364;18.582;2023-03-04T03:13:31;99382.13;;;3.67;100.00
48364;BME280;34170;54.364;18.582;2023-03-04T03:15:59;99387.81;;;3.74;100.00
48364;BME280;34170;54.364;18.582;2023-03-04T03:18:27;99382.63;;;3.72;100.00
48364;BME280;34170;54.364;18.582;2023-03-04T03:20:54;99388.19;;;3.47;100.00
48364;BME280;34170;54.364;18.582;2023-03-04T03:23:21;99378.16;;;3.50;100.00
48364;BME280;34170;54.364;18.582;2023-03-04T03:25:52;99366.00;;;3.36;100.00
48364;BME280;34170;54.364;18.582;2023-03-04T03:28:19;99378.28;;;3.60;100.00
48364;BME280;34170;54.364;18.582;2023-03-04T03:30:47;99377.41;;;3.59;100.00
48364;BME280;34170;54.364;18.582;2023-03-04T03:33:14;99372.84;;;3.61;100.00
48364;BME280;34170;54.364;18.582;2023-03-04T03:35:42;99375.16;;;3.43;100.00
48364;BME280;34170;54.364;18.582;2023-03-04T03:38:11;99376.34;;;3.39;100.00
48364;BME280;34170;54.364;18.582;2023-03-04T03:40:38;99375.28;;;3.42;100.00
48364;BME280;34170;54.364;18.582;2023-03-04T03:43:05;99380.81;;;3.50;100.00
48364;BME280;34170;54.364;18.582;2023-03-04T03:45:33;99374.75;;;3.59;100.00
48364;BME280;34170;54.364;18.582;2023-03-04T03:48:00;99369.72;;;3.34;100.00
48364;BME280;34170;54.364;18.582;2023-03-04T03:50:27;99383.00;;;3.56;100.00
48364;BME280;34170;54.364;18.582;2023-03-04T03:52:56;99363.09;;;3.28;100.00
48364;BME280;34170;54.364;18.582;2023-03-04T03:55:23;99366.31;;;3.43;100.00
48364;BME280;34170;54.364;18.582;2023-03-04T03:57:50;99372.25;;;3.35;100.00
48364;BME280;34170;54.364;18.582;2023-03-04T04:00:18;99366.34;;;3.32;100.00
48364;BME280;34170;54.364;18.582;2023-03-04T04:02:46;99365.59;;;3.41;100.00
48364;BME280;34170;54.364;18.582;2023-03-04T04:05:14;99366.47;;;3.30;100.00
48364;BME280;34170;54.364;18.582;2023-03-04T04:07:42;99358.25;;;3.22;100.00
48364;BME280;34170;54.364;18.582;2023-03-04T04:10:09;99352.94;;;3.33;100.00
48364;BME280;34170;54.364;18.582;2023-03-04T04:12:37;99362.59;;;3.12;100.00
48364;BME280;34170;54.364;18.582;2023-03-04T04:15:05;99368.53;;;3.15;100.00
48364;BME280;34170;54.364;18.582;2023-03-04T04:17:33;99370.81;;;3.31;100.00
48364;BME280;34170;54.364;18.582;2023-03-04T04:20:00;99368.16;;;3.31;100.00
48364;BME280;34170;54.364;18.582;2023-03-04T04:22:28;99369.25;;;3.40;100.00
48364;BME280;34170;54.364;18.582;2023-03-04T04:24:55;99380.59;;;3.42;100.00
48364;BME280;34170;54.364;18.582;2023-03-04T04:27:23;99367.03;;;3.45;100.00
48364;BME280;34170;54.364;18.582;2023-03-04T04:29:50;99365.84;;;3.04;100.00
48364;BME280;34170;54.364;18.582;2023-03-04T04:32:18;99373.34;;;2.99;100.00
48364;BME280;34170;54.364;18.582;2023-03-04T04:34:45;99365.25;;;3.12;100.00
48364;BME280;34170;54.364;18.582;2023-03-04T04:37:13;99356.81;;;3.07;100.00
48364;BME280;34170;54.364;18.582;2023-03-04T04:39:40;99366.22;;;3.11;100.00
48364;BME280;34170;54.364;18.582;2023-03-04T04:42:09;99369.72;;;3.00;100.00
48364;BME280;34170;54.364;18.582;2023-03-04T04:44:37;99365.38;;;3.10;100.00
48364;BME280;34170;54.364;18.582;2023-03-04T04:47:05;99367.88;;;3.00;100.00
48364;BME280;34170;54.364;18.582;2023-03-04T04:49:33;99372.13;;;3.14;100.00
48364;BME280;34170;54.364;18.582;2023-03-04T04:52:00;99367.53;;;3.16;100.00
48364;BME280;34170;54.364;18.582;2023-03-04T04:54:27;99376.13;;;2.97;100.00
48364;BME280;34170;54.364;18.582;2023-03-04T04:56:55;99371.91;;;3.17;100.00
48364;BME280;34170;54.364;18.582;2023-03-04T04:59:22;99361.38;;;3.16;100.00
48364;BME280;34170;54.364;18.582;2023-03-04T05:01:50;99369.81;;;2.98;100.00
48364;BME280;34170;54.364;18.582;2023-03-04T05:04:17;99377.59;;;3.24;100.00
48364;BME280;34170;54.364;18.582;2023-03-04T05:06:45;99362.72;;;3.44;100.00
48364;BME280;34170;54.364;18.582;2023-03-04T05:09:12;99364.41;;;3.56;100.00
48364;BME280;34170;54.364;18.582;2023-03-04T05:11:40;99365.84;;;3.49;100.00
48364;BME280;34170;54.364;18.582;2023-03-04T05:14:07;99368.75;;;3.35;100.00
48364;BME280;34170;54.364;18.582;2023-03-04T05:16:35;99367.53;;;3.50;100.00
48364;BME280;34170;54.364;18.582;2023-03-04T05:19:02;99368.72;;;3.57;100.00
48364;BME280;34170;54.364;18.582;2023-03-04T05:21:30;99364.50;;;3.55;100.00
48364;BME280;34170;54.364;18.582;2023-03-04T05:23:57;99364.88;;;3.61;100.00
48364;BME280;34170;54.364;18.582;2023-03-04T05:26:25;99369.09;;;3.64;100.00
48364;BME280;34170;54.364;18.582;2023-03-04T05:28:52;99360.88;;;3.44;100.00
48364;BME280;34170;54.364;18.582;2023-03-04T05:31:20;99365.00;;;3.60;100.00
48364;BME280;34170;54.364;18.582;2023-03-04T05:33:47;99364.84;;;3.73;100.00
48364;BME280;34170;54.364;18.582;2023-03-04T05:36:15;99366.53;;;3.62;100.00
48364;BME280;34170;54.364;18.582;2023-03-04T05:38:42;99367.25;;;3.76;100.00
48364;BME280;34170;54.364;18.582;2023-03-04T05:41:10;99372.66;;;3.86;100.00
48364;BME280;34170;54.364;18.582;2023-03-04T05:43:37;99380.47;;;3.98;100.00
48364;BME280;34170;54.364;18.582;2023-03-04T05:46:13;99378.59;;;3.89;100.00
48364;BME280;34170;54.364;18.582;2023-03-04T05:48:42;99380.69;;;3.74;100.00
48364;BME280;34170;54.364;18.582;2023-03-04T05:51:09;99368.19;;;3.86;100.00
48364;BME280;34170;54.364;18.582;2023-03-04T05:53:37;99371.16;;;3.60;100.00
48364;BME280;34170;54.364;18.582;2023-03-04T05:56:09;99392.66;;;3.46;100.00
48364;BME280;34170;54.364;18.582;2023-03-04T05:58:37;99369.53;;;3.80;100.00
48364;BME280;34170;54.364;18.582;2023-03-04T06:01:05;99379.28;;;3.91;100.00
48364;BME280;34170;54.364;18.582;2023-03-04T06:03:33;99381.03;;;3.81;100.00
48364;BME280;34170;54.364;18.582;2023-03-04T06:06:01;99378.66;;;3.55;100.00
48364;BME280;34170;54.364;18.582;2023-03-04T06:08:28;99373.31;;;3.55;100.00
48364;BME280;34170;54.364;18.582;2023-03-04T06:10:56;99376.56;;;3.81;100.00
48364;BME280;34170;54.364;18.582;2023-03-04T06:13:25;99370.84;;;3.86;100.00
48364;BME280;34170;54.364;18.582;2023-03-04T06:15:54;99379.34;;;3.80;100.00
48364;BME280;34170;54.364;18.582;2023-03-04T06:18:22;99374.63;;;3.84;100.00
48364;BME280;34170;54.364;18.582;2023-03-04T06:20:58;99370.13;;;3.84;100.00
48364;BME280;34170;54.364;18.582;2023-03-04T06:23:26;99371.78;;;3.96;100.00
48364;BME280;34170;54.364;18.582;2023-03-04T06:25:55;99378.09;;;3.84;100.00
48364;BME280;34170;54.364;18.582;2023-03-04T06:28:23;99384.84;;;3.99;100.00
48364;BME280;34170;54.364;18.582;2023-03-04T06:30:52;99379.72;;;4.19;100.00
48364;BME280;34170;54.364;18.582;2023-03-04T06:33:19;99383.69;;;4.25;99.42
48364;BME280;34170;54.364;18.582;2023-03-04T06:35:47;99390.78;;;4.35;98.04
48364;BME280;34170;54.364;18.582;2023-03-04T06:38:15;99383.84;;;4.44;98.63
48364;BME280;34170;54.364;18.582;2023-03-04T06:40:42;99390.59;;;4.48;96.62
48364;BME280;34170;54.364;18.582;2023-03-04T06:43:11;99390.53;;;4.38;96.53
48364;BME280;34170;54.364;18.582;2023-03-04T06:45:39;99393.72;;;4.53;95.93
48364;BME280;34170;54.364;18.582;2023-03-04T06:48:06;99391.06;;;4.53;94.91
48364;BME280;34170;54.364;18.582;2023-03-04T06:50:34;99391.69;;;4.46;95.41
48364;BME280;34170;54.364;18.582;2023-03-04T06:53:01;99390.53;;;4.06;95.85
48364;BME280;34170;54.364;18.582;2023-03-04T06:55:29;99394.25;;;4.47;94.33
48364;BME280;34170;54.364;18.582;2023-03-04T06:57:56;99392.78;;;4.43;95.09
48364;BME280;34170;54.364;18.582;2023-03-04T07:00:24;99392.41;;;4.48;93.19
48364;BME280;34170;54.364;18.582;2023-03-04T07:02:51;99386.56;;;4.54;91.07
48364;BME280;34170;54.364;18.582;2023-03-04T07:05:21;99393.38;;;4.47;90.80
48364;BME280;34170;54.364;18.582;2023-03-04T07:07:48;99399.78;;;4.76;89.31
48364;BME280;34170;54.364;18.582;2023-03-04T07:10:17;99399.84;;;4.65;88.97
48364;BME280;34170;54.364;18.582;2023-03-04T07:12:45;99400.47;;;4.57;88.70
48364;BME280;34170;54.364;18.582;2023-03-04T07:15:13;99403.97;;;4.79;87.94
48364;BME280;34170;54.364;18.582;2023-03-04T07:17:40;99410.16;;;5.01;86.38
48364;BME280;34170;54.364;18.582;2023-03-04T07:20:08;99413.72;;;4.90;85.43
48364;BME280;34170;54.364;18.582;2023-03-04T07:22:36;99413.00;;;4.88;85.12
48364;BME280;34170;54.364;18.582;2023-03-04T07:25:04;99403.59;;;5.05;85.06
48364;BME280;34170;54.364;18.582;2023-03-04T07:27:32;99421.72;;;5.11;85.16
48364;BME280;34170;54.364;18.582;2023-03-04T07:30:00;99425.44;;;4.99;84.54
48364;BME280;34170;54.364;18.582;2023-03-04T07:32:27;99421.97;;;5.08;84.63
48364;BME280;34170;54.364;18.582;2023-03-04T07:34:55;99422.75;;;5.20;83.99
48364;BME280;34170;54.364;18.582;2023-03-04T07:37:22;99423.50;;;4.80;84.51
48364;BME280;34170;54.364;18.582;2023-03-04T07:39:50;99426.78;;;5.35;82.15
48364;BME280;34170;54.364;18.582;2023-03-04T07:42:17;99419.81;;;5.23;80.71
48364;BME280;34170;54.364;18.582;2023-03-04T07:44:52;99419.22;;;4.88;79.31
48364;BME280;34170;54.364;18.582;2023-03-04T07:47:21;99434.94;;;5.43;75.25
48364;BME280;34170;54.364;18.582;2023-03-04T07:49:48;99420.06;;;5.41;71.27
48364;BME280;34170;54.364;18.582;2023-03-04T07:52:15;99428.34;;;5.78;69.08
48364;BME280;34170;54.364;18.582;2023-03-04T07:54:43;99435.13;;;5.92;67.59
48364;BME280;34170;54.364;18.582;2023-03-04T07:57:10;99425.81;;;5.86;60.78
48364;BME280;34170;54.364;18.582;2023-03-04T07:59:38;99441.06;;;5.96;56.76
48364;BME280;34170;54.364;18.582;2023-03-04T08:02:06;99432.47;;;5.61;50.80
48364;BME280;34170;54.364;18.582;2023-03-04T08:04:34;99437.25;;;5.58;50.38
48364;BME280;34170;54.364;18.582;2023-03-04T08:07:01;99435.66;;;5.76;49.71
48364;BME280;34170;54.364;18.582;2023-03-04T08:09:29;99432.09;;;6.06;49.49
48364;BME280;34170;54.364;18.582;2023-03-04T08:11:57;99433.56;;;5.89;47.43
48364;BME280;34170;54.364;18.582;2023-03-04T08:14:24;99417.34;;;5.62;47.79
48364;BME280;34170;54.364;18.582;2023-03-04T08:16:52;99442.88;;;5.54;47.08
48364;BME280;34170;54.364;18.582;2023-03-04T08:19:19;99438.16;;;5.78;46.80
48364;BME280;34170;54.364;18.582;2023-03-04T08:21:47;99428.34;;;5.88;45.72
48364;BME280;34170;54.364;18.582;2023-03-04T08:24:14;99430.91;;;5.89;44.88
48364;BME280;34170;54.364;18.582;2023-03-04T08:26:45;99426.06;;;5.64;44.65
48364;BME280;34170;54.364;18.582;2023-03-04T08:29:18;99442.28;;;5.51;44.23
48364;BME280;34170;54.364;18.582;2023-03-04T08:31:48;99438.41;;;5.96;43.95
48364;BME280;34170;54.364;18.582;2023-03-04T08:34:18;99436.66;;;5.95;43.93
48364;BME280;34170;54.364;18.582;2023-03-04T08:36:46;99429.50;;;5.85;43.12
48364;BME280;34170;54.364;18.582;2023-03-04T08:39:15;99431.97;;;5.77;43.33
48364;BME280;34170;54.364;18.582;2023-03-04T08:41:43;99440.81;;;5.37;44.34
48364;BME280;34170;54.364;18.582;2023-03-04T08:44:11;99427.94;;;5.21;44.86
48364;BME280;34170;54.364;18.582;2023-03-04T08:46:41;99437.31;;;5.37;44.21
48364;BME280;34170;54.364;18.582;2023-03-04T08:49:11;99436.78;;;5.22;43.91
48364;BME280;34170;54.364;18.582;2023-03-04T08:51:40;99432.19;;;5.54;44.04
48364;BME280;34170;54.364;18.582;2023-03-04T08:54:08;99432.56;;;5.81;43.44
48364;BME280;34170;54.364;18.582;2023-03-04T08:56:35;99446.31;;;5.76;43.31
48364;BME280;34170;54.364;18.582;2023-03-04T08:59:03;99448.13;;;6.16;43.37
48364;BME280;34170;54.364;18.582;2023-03-04T09:01:30;99438.13;;;5.68;43.97
48364;BME280;34170;54.364;18.582;2023-03-04T09:03:58;99437.63;;;5.93;42.72
48364;BME280;34170;54.364;18.582;2023-03-04T09:06:25;99452.22;;;5.80;42.57
48364;BME280;34170;54.364;18.582;2023-03-04T09:08:53;99452.63;;;5.75;42.82
48364;BME280;34170;54.364;18.582;2023-03-04T09:11:20;99457.28;;;5.83;42.13
48364;BME280;34170;54.364;18.582;2023-03-04T09:13:47;99461.44;;;5.97;40.29
48364;BME280;34170;54.364;18.582;2023-03-04T09:16:17;99459.94;;;6.23;39.75
48364;BME280;34170;54.364;18.582;2023-03-04T09:18:44;99470.47;;;5.84;39.55
48364;BME280;34170;54.364;18.582;2023-03-04T09:21:13;99455.47;;;5.52;39.78
48364;BME280;34170;54.364;18.582;2023-03-04T09:23:41;99468.00;;;5.10;39.22
48364;BME280;34170;54.364;18.582;2023-03-04T09:26:23;99465.78;;;5.36;36.74
48364;BME280;34170;54.364;18.582;2023-03-04T09:28:56;99465.84;;;5.46;36.49
48364;BME280;34170;54.364;18.582;2023-03-04T09:31:25;99459.94;;;5.21;36.16
48364;BME280;34170;54.364;18.582;2023-03-04T09:33:54;99470.41;;;5.13;36.68
48364;BME280;34170;54.364;18.582;2023-03-04T09:36:22;99463.41;;;5.12;36.17
48364;BME280;34170;54.364;18.582;2023-03-04T09:38:50;99475.41;;;5.27;36.67
48364;BME280;34170;54.364;18.582;2023-03-04T09:41:21;99480.56;;;5.71;36.42
48364;BME280;34170;54.364;18.582;2023-03-04T09:43:51;99477.13;;;5.59;36.32
48364;BME280;34170;54.364;18.582;2023-03-04T09:46:33;99482.41;;;5.49;36.38
48364;BME280;34170;54.364;18.582;2023-03-04T09:49:02;99471.91;;;5.88;36.04
48364;BME280;34170;54.364;18.582;2023-03-04T09:51:40;99467.94;;;5.83;36.37
48364;BME280;34170;54.364;18.582;2023-03-04T09:57:14;99476.28;;;6.30;37.06
48364;BME280;34170;54.364;18.582;2023-03-04T10:02:38;99478.00;;;6.60;35.81
48364;BME280;34170;54.364;18.582;2023-03-04T10:05:16;99465.59;;;5.89;35.06
48364;BME280;34170;54.364;18.582;2023-03-04T10:07:48;99490.03;;;6.25;35.38
48364;BME280;34170;54.364;18.582;2023-03-04T10:10:26;99479.69;;;5.70;35.61
48364;BME280;34170;54.364;18.582;2023-03-04T10:12:56;99497.38;;;6.43;35.33
48364;BME280;34170;54.364;18.582;2023-03-04T10:15:39;99487.44;;;6.04;35.76
48364;BME280;34170;54.364;18.582;2023-03-04T10:21:03;99491.72;;;6.36;35.23
48364;BME280;34170;54.364;18.582;2023-03-04T10:23:34;99487.41;;;6.64;33.83
48364;BME280;34170;54.364;18.582;2023-03-04T10:26:13;99498.22;;;7.12;32.14
48364;BME280;34170;54.364;18.582;2023-03-04T10:28:40;99487.34;;;8.17;29.51
48364;BME280;34170;54.364;18.582;2023-03-04T10:31:32;99494.94;;;9.04;28.83
48364;BME280;34170;54.364;18.582;2023-03-04T10:34:04;99484.09;;;9.92;28.19
48364;BME280;34170;54.364;18.582;2023-03-04T10:36:55;99484.88;;;9.50;28.28
48364;BME280;34170;54.364;18.582;2023-03-04T10:39:39;99479.22;;;9.09;29.78
48364;BME280;34170;54.364;18.582;2023-03-04T10:45:05;99481.00;;;8.64;30.16
48364;BME280;34170;54.364;18.582;2023-03-04T10:47:31;99456.34;;;8.78;29.10
48364;BME280;34170;54.364;18.582;2023-03-04T10:50:00;99484.41;;;9.54;26.44
48364;BME280;34170;54.364;18.582;2023-03-04T10:52:51;99488.03;;;8.19;26.99
48364;BME280;34170;54.364;18.582;2023-03-04T10:55:23;99478.53;;;8.71;27.01
48364;BME280;34170;54.364;18.582;2023-03-04T10:58:00;99473.72;;;8.92;25.65
48364;BME280;34170;54.364;18.582;2023-03-04T11:00:31;99494.28;;;10.23;24.57
48364;BME280;34170;54.364;18.582;2023-03-04T11:03:23;99476.66;;;9.78;24.40
48364;BME280;34170;54.364;18.582;2023-03-04T11:06:18;99469.41;;;9.44;24.79
48364;BME280;34170;54.364;18.582;2023-03-04T11:08:57;99485.22;;;9.81;24.37
48364;BME280;34170;54.364;18.582;2023-03-04T11:11:52;99493.19;;;10.34;23.99
48364;BME280;34170;54.364;18.582;2023-03-04T11:14:25;99505.44;;;11.12;23.44
48364;BME280;34170;54.364;18.582;2023-03-04T11:17:17;99492.13;;;8.87;23.95
48364;BME280;34170;54.364;18.582;2023-03-04T11:19:53;99505.41;;;7.78;25.61
48364;BME280;34170;54.364;18.582;2023-03-04T11:22:23;99491.22;;;6.62;27.04
48364;BME280;34170;54.364;18.582;2023-03-04T11:24:58;99498.72;;;6.18;28.28
48364;BME280;34170;54.364;18.582;2023-03-04T11:27:35;99508.75;;;6.45;28.72
48364;BME280;34170;54.364;18.582;2023-03-04T11:30:24;99494.59;;;6.74;28.65
48364;BME280;34170;54.364;18.582;2023-03-04T11:32:56;99497.59;;;6.10;29.56
48364;BME280;34170;54.364;18.582;2023-03-04T11:38:46;99521.09;;;5.65;30.94
48364;BME280;34170;54.364;18.582;2023-03-04T11:43:49;99512.13;;;5.97;29.22
48364;BME280;34170;54.364;18.582;2023-03-04T11:46:42;99491.63;;;5.45;29.05
48364;BME280;34170;54.364;18.582;2023-03-04T11:53:13;99502.84;;;5.39;27.37
48364;BME280;34170;54.364;18.582;2023-03-04T12:01:08;99522.75;;;5.14;27.64
48364;BME280;34170;54.364;18.582;2023-03-04T12:06:45;99529.16;;;5.11;28.61
48364;BME280;34170;54.364;18.582;2023-03-04T12:14:37;99532.75;;;5.22;27.68
48364;BME280;34170;54.364;18.582;2023-03-04T12:20:08;99557.75;;;4.88;26.87
48364;BME280;34170;54.364;18.582;2023-03-04T12:23:09;99567.34;;;4.80;27.63
48364;BME280;34170;54.364;18.582;2023-03-04T12:28:25;99560.19;;;4.80;27.67
48364;BME280;34170;54.364;18.582;2023-03-04T12:46:35;99555.66;;;4.48;30.40
48364;BME280;34170;54.364;18.582;2023-03-04T12:48:52;99571.81;;;4.79;29.50
48364;BME280;34170;54.364;18.582;2023-03-04T12:51:36;99564.97;;;5.19;29.49
48364;BME280;34170;54.364;18.582;2023-03-04T12:54:27;99582.84;;;5.39;29.30
48364;BME280;34170;54.364;18.582;2023-03-04T12:57:09;99565.53;;;4.80;29.52
48364;BME280;34170;54.364;18.582;2023-03-04T12:59:54;99574.63;;;4.66;29.37
48364;BME280;34170;54.364;18.582;2023-03-04T13:02:49;99551.13;;;3.71;30.41
48364;BME280;34170;54.364;18.582;2023-03-04T13:10:51;99577.59;;;3.84;28.54
48364;BME280;34170;54.364;18.582;2023-03-04T13:13:32;99608.28;;;3.77;29.10
48364;BME280;34170;54.364;18.582;2023-03-04T13:16:03;99590.16;;;3.93;28.73
48364;BME280;34170;54.364;18.582;2023-03-04T13:18:35;99583.59;;;3.52;28.09
48364;BME280;34170;54.364;18.582;2023-03-04T13:21:20;99589.56;;;3.90;28.19
48364;BME280;34170;54.364;18.582;2023-03-04T13:23:50;99582.22;;;3.35;27.71
48364;BME280;34170;54.364;18.582;2023-03-04T13:26:29;99597.84;;;3.51;27.91
48364;BME280;34170;54.364;18.582;2023-03-04T13:32:04;99591.53;;;3.41;27.32
48364;BME280;34170;54.364;18.582;2023-03-04T13:34:51;99595.25;;;3.74;27.51
48364;BME280;34170;54.364;18.582;2023-03-04T13:37:31;99600.41;;;3.64;28.22
48364;BME280;34170;54.364;18.582;2023-03-04T13:42:53;99594.97;;;3.54;27.37
48364;BME280;34170;54.364;18.582;2023-03-04T13:45:36;99592.72;;;3.84;28.32
48364;BME280;34170;54.364;18.582;2023-03-04T13:48:22;99572.22;;;3.39;28.81
48364;BME280;34170;54.364;18.582;2023-03-04T13:50:51;99584.03;;;3.35;29.10
48364;BME280;34170;54.364;18.582;2023-03-04T13:56:37;99607.34;;;3.78;29.11
48364;BME280;34170;54.364;18.582;2023-03-04T13:59:20;99622.31;;;3.79;29.67
48364;BME280;34170;54.364;18.582;2023-03-04T14:01:58;99606.56;;;3.53;29.93
48364;BME280;34170;54.364;18.582;2023-03-04T14:04:33;99624.97;;;3.68;30.82
48364;BME280;34170;54.364;18.582;2023-03-04T14:07:16;99631.78;;;3.83;30.82
48364;BME280;34170;54.364;18.582;2023-03-04T14:10:05;99622.41;;;3.66;31.46
48364;BME280;34170;54.364;18.582;2023-03-04T14:12:35;99639.88;;;3.46;31.37
48364;BME280;34170;54.364;18.582;2023-03-04T14:17:45;99655.84;;;3.93;31.58
48364;BME280;34170;54.364;18.582;2023-03-04T14:20:26;99649.41;;;3.84;32.34
48364;BME280;34170;54.364;18.582;2023-03-04T14:22:55;99662.09;;;3.45;33.36
48364;BME280;34170;54.364;18.582;2023-03-04T14:28:02;99673.16;;;3.63;36.28
48364;BME280;34170;54.364;18.582;2023-03-04T14:30:31;99666.44;;;3.35;37.70
48364;BME280;34170;54.364;18.582;2023-03-04T14:33:15;99672.56;;;3.24;38.28
48364;BME280;34170;54.364;18.582;2023-03-04T14:35:48;99654.31;;;3.31;38.55